Scottish Travel

Scottish Travel



 METAR AND TAF INFORMATION
METAR FOR LEIB
ADDS - METARS form results

(0340 UTC 25 May 2020)
Data provider http://aviationweather.gov/metar/data/
 
METAR text: LEIB 250330Z 36003KT CAVOK 17/14 Q1025 NOSIG
Conditions at: LEIB (IBIZA/ES CODOLA , ES) observed 0330 UTC 25 May 2020
Temperature: 17.0°C (63°F)
Dewpoint: 14.0°C (57°F) [RH = 82%]
Pressure (altimeter): 30.27 inches Hg (1025.0 mb)
Winds: from the N (360 degrees) at 3 MPH (3 knots; 1.5 m/s)
Visibility: 6 or more miles (10+ km)
Ceiling: ceiling and visibility are OK
Clouds: unknown
Weather: no significant weather observed at this time

METAR text: LEIB 250300Z AUTO 36004KT CAVOK 17/14 Q1025
Conditions at: LEIB (IBIZA/ES CODOLA , ES) observed 0300 UTC 25 May 2020
Temperature: 17.0°C (63°F)
Dewpoint: 14.0°C (57°F) [RH = 82%]
Pressure (altimeter): 30.27 inches Hg (1025.0 mb)
Winds: from the N (360 degrees) at 5 MPH (4 knots; 2.1 m/s)
Visibility: 6 or more miles (10+ km)
Ceiling: ceiling and visibility are OK
Clouds: unknown
Weather: no significant weather observed at this time

Forecast for: LEIB (IBIZA/ES CODOLA , ES)
Text: TAF LEIB 250200Z 2503/2603 03004KT CAVOK TX26/2512Z TN15/2506Z
Forecast period: 0300 to 0800 UTC 25 May 2020
Forecast type: FROM: standard forecast or significant change
Winds: from the NNE (30 degrees) at 5 MPH (4 knots; 2.1 m/s)
Visibility: 6 or more miles 10+ km)
Ceiling: unknown
Clouds: missing
Weather: no significant weather forecast for this period
Text: BECMG 2508/2510 09014KT
Forecast period: 0800 to 1800 UTC 25 May 2020
Forecast type: BECOMING: Conditions expected to become as follows by 1000 UTC 25 May 2020
Winds: from the E (90 degrees) at 16 MPH (14 knots; 7.2 m/s)
Visibility: 6 or more miles 10+ km)
Ceiling: unknown
Clouds: missing
Weather: no significant weather forecast for this period
Text: BECMG 2518/2520 03004KT
Forecast period: 1800 UTC 25 May 2020 to 0300 UTC 26 May 2020
Forecast type: BECOMING: Conditions expected to become as follows by 2000 UTC 25 May 2020
Winds: from the NNE (30 degrees) at 5 MPH (4 knots; 2.1 m/s)
Visibility: 6 or more miles 10+ km)
Ceiling: unknown
Clouds: missing
Weather: no significant weather forecast for this period

 AIRPORT MAP

 RUNWAY INFORMATION
Runway 06 Runway length 9186 ft Runway width 148 ft
Runway elevation 13 ft Runway displaced threshold 0 ft Runway heading 62
Runway 24 Runway length 9186 ft Runway width 148 ft
Runway elevation 16 ft Runway displaced threshold 0 ft Runway heading 242

 AIRPORT FREQUENCIES
Type APP Name PALMA APP Frequency 118.125 MHZ
Type APP Name APP Frequency 119.8 MHZ
Type ATIS Name ATIS Frequency 117.8 MHZ
Type GND Name GND Frequency 121.8 MHZ
Type TWR Name TWR Frequency 118.5 MHZ

 AIRPORT NEAR NAVIGATION AIDS
Type VOR-DME Name Ibiza Frequency 117800 KHZ
Type NDB Name Ibiza Frequency 394 KHZ